Language selection

Weather shortcuts

Eastern Lake Superior: Past 24 Hour Conditions

 

Cameron Falls

01:00 AM EDT 14 June 2024
Disclaimer

This table is a summary of hourly weather conditions for the past 24 hours.
Please note that these observations might not always be representative of weather conditions over their associated marine area.

Date / Time
(EDT)
Wind(knots) Conditions Visibility(km) Pressure(kPa) Air tempC) Relative humidity(%) Dew pointC)
14 June 2024
1:00 NNE 3 N/A N/A 101.3 9 95 9
0:00 N 1 N/A N/A 101.2 10 95 10
13 June 2024
23:00 calm N/A N/A 101.1 11 89 10
22:00 calm N/A N/A 101.0 13 83 10
21:00 NNW 3 N/A N/A 101.0 18 56 9
20:00 N 6 N/A N/A 100.9 17 60 9
19:00 N 11 N/A N/A 100.8 17 63 10
18:00 NNE 12 N/A N/A 100.8 17 64 10
17:00 N 6 N/A N/A 100.7 17 67 11
16:00 N 7 N/A N/A 100.6 17 64 11
15:00 NNE 9 N/A N/A 100.6 16 71 11
14:00 NNE 6 N/A N/A 100.6 15 79 11
13:00 N 9 gusts 16 N/A N/A 100.6 15 81 11
12:00 N 10 N/A N/A 100.5 15 75 11
11:00 N 10 N/A N/A 100.4 17 66 10
10:00 NNE 2 N/A N/A 100.4 15 84 12
9:00 NE 1 N/A N/A 100.4 14 89 12
8:00 NE 2 N/A N/A 100.4 11 99 11
7:00 NW 3 N/A N/A 100.3 11 99 11
6:00 calm N/A N/A 100.3 11 99 11
5:00 SW 1 N/A N/A 100.2 11 99 11
4:00 SSE 1 N/A N/A 100.2 11 99 11
3:00 SE 1 N/A N/A 100.3 11 98 11
2:00 S 2 N/A N/A 100.3 11 98 11
1:00 ENE 3 N/A N/A 100.3 11 97 11

Zoom-in to make a selection

Map of Great Lakes - Lake Superior marine weather areas Mid Superior - 45001 East Superior - 45004 West Superior - 45006 Slate Island - 45136 Lake Of the Woods - 45148 Kenora Airport Royal Island Armstrong Airport Caribou Island Marathon Airport Pukaskwa National Park Thunder Bay Airport Welcome Island Little Flatland Island Sault Ste. Marie Airport Wawa Airport
Legend:
buoy Buoy
land station Land Station

Great Lakes - Lake Superior Area

Another Region

Features

New Predicting and Alerting Coastal Flooding Program

Find out about coastal flooding coverage, forecasts and warnings in your region

Date modified: